Time;durP1;ratioP1;P1;durP2;ratioP2;P2;SDS_P1;SDS_P2;PMS_P1;PMS_P2;Temp;Humidity;BMP_temperature;BMP_pressure;BME280_temperature;BME280_humidity;BME280_pressure;Samples;Min_cycle;Max_cycle;Signal;HPM_P1;HPM_P2
2022/05/16 00:00:29;;;;;;;3.63;1.20;;;18.90;54.80;;;;;;2074940;28;20034;-94
2022/05/16 00:01:48;;;;;;;4.22;1.33;;;18.80;55.50;;;;;;2075541;28;20045;-94
2022/05/16 00:03:08;;;;;;;3.58;1.58;;;18.80;54.90;;;;;;2068193;28;20042;-94
2022/05/16 00:04:27;;;;;;;5.28;1.80;;;18.80;55.00;;;;;;2059719;28;20506;-92
2022/05/16 00:05:47;;;;;;;4.63;1.20;;;18.80;55.10;;;;;;2059104;28;20047;-94
2022/05/16 00:07:06;;;;;;;4.07;1.35;;;18.70;55.10;;;;;;2069963;28;20023;-93
2022/05/16 00:08:25;;;;;;;4.93;1.55;;;18.70;55.20;;;;;;2067265;28;20050;-91
2022/05/16 00:09:45;;;;;;;3.67;1.33;;;18.70;55.30;;;;;;2063059;28;20440;-93
2022/05/16 00:11:04;;;;;;;5.70;1.48;;;18.70;55.30;;;;;;2052412;28;20051;-92
2022/05/16 00:12:23;;;;;;;5.47;1.58;;;18.70;55.50;;;;;;2050058;28;20043;-92
2022/05/16 00:13:42;;;;;;;4.80;1.50;;;18.70;55.60;;;;;;2067973;28;20041;-94
2022/05/16 00:15:04;;;;;;;2.90;1.20;;;18.60;55.60;;;;;;2055793;28;20059;-93
2022/05/16 00:16:23;;;;;;;3.83;1.35;;;18.60;55.70;;;;;;2060723;28;20035;-94
2022/05/16 00:17:43;;;;;;;4.35;1.40;;;18.60;55.70;;;;;;2064775;28;20038;-93
2022/05/16 00:19:02;;;;;;;3.97;1.48;;;18.60;55.80;;;;;;2072305;28;20042;-93
2022/05/16 00:20:22;;;;;;;5.25;1.30;;;18.60;55.90;;;;;;2058851;28;20051;-94
2022/05/16 00:21:41;;;;;;;4.82;1.58;;;18.60;55.90;;;;;;2053242;28;20105;-92
2022/05/16 00:23:01;;;;;;;3.67;1.02;;;18.50;56.00;;;;;;2070421;28;20045;-92
2022/05/16 00:24:24;;;;;;;4.30;1.42;;;18.60;56.10;;;;;;2076104;28;20089;-92
2022/05/16 00:25:43;;;;;;;5.82;1.75;;;18.50;56.10;;;;;;2058760;28;20066;-93
2022/05/16 00:27:03;;;;;;;5.38;1.58;;;18.50;56.10;;;;;;2048156;29;20035;-93
2022/05/16 00:28:22;;;;;;;4.72;1.23;;;18.50;56.20;;;;;;2061286;28;20047;-92
2022/05/16 00:29:41;;;;;;;5.18;1.50;;;18.50;56.30;;;;;;2071205;28;20046;-91
2022/05/16 00:31:00;;;;;;;6.57;1.70;;;18.50;56.40;;;;;;2075155;28;20037;-92
2022/05/16 00:32:20;;;;;;;4.75;1.50;;;18.50;56.40;;;;;;2059376;28;20043;-94
2022/05/16 00:33:41;;;;;;;3.72;1.55;;;18.40;56.40;;;;;;2070187;28;20081;-94
2022/05/16 00:35:01;;;;;;;;;;;18.40;56.50;;;;;;2075293;28;20038;-92
2022/05/16 00:36:20;;;;;;;4.70;1.63;;;18.40;56.50;;;;;;2067751;28;19922;-90
2022/05/16 00:37:39;;;;;;;3.85;1.42;;;18.40;56.40;;;;;;2072520;28;20121;-93
2022/05/16 00:38:58;;;;;;;5.22;1.60;;;18.40;56.50;;;;;;2067985;28;20502;-94
2022/05/16 00:40:18;;;;;;;5.57;1.55;;;18.30;56.50;;;;;;2072422;28;20029;-95
2022/05/16 00:41:38;;;;;;;3.78;1.45;;;18.30;56.60;;;;;;2067722;28;20042;-93
2022/05/16 00:43:09;;;;;;;6.00;1.58;;;18.30;56.70;;;;;;2065015;28;20054;-93
2022/05/16 00:44:29;;;;;;;4.90;1.30;;;18.30;56.80;;;;;;2067131;28;20544;-92
2022/05/16 00:45:50;;;;;;;3.58;1.25;;;18.30;56.90;;;;;;2072874;28;20046;-92
2022/05/16 00:47:09;;;;;;;5.15;1.42;;;18.30;56.90;;;;;;2067155;28;20050;-93
2022/05/16 00:48:29;;;;;;;6.20;1.38;;;18.30;57.00;;;;;;2073162;28;20046;-93
2022/05/16 00:49:51;;;;;;;5.22;1.40;;;18.30;57.10;;;;;;2076954;28;20120;-94
2022/05/16 00:51:17;;;;;;;3.75;1.40;;;18.30;57.20;;;;;;2067994;28;20038;-93
2022/05/16 00:52:41;;;;;;;4.80;1.60;;;18.20;57.20;;;;;;2068120;28;20046;-92
2022/05/16 00:54:09;;;;;;;5.05;1.42;;;18.20;57.30;;;;;;2067396;28;20038;-94
2022/05/16 00:55:35;;;;;;;4.95;1.70;;;18.20;57.40;;;;;;2065573;28;20034;-91
2022/05/16 00:56:59;;;;;;;5.00;1.63;;;18.20;57.50;;;;;;2066232;28;20034;-93
2022/05/16 00:58:19;;;;;;;4.82;1.45;;;18.20;57.50;;;;;;2064541;28;20416;-92
2022/05/16 00:59:44;;;;;;;4.00;1.45;;;18.20;57.50;;;;;;2072384;28;20104;-94
2022/05/16 01:01:03;;;;;;;6.47;1.42;;;18.10;57.50;;;;;;2075495;28;20037;-93
2022/05/16 01:05:43;;;;;;;4.07;1.20;;;18.10;57.70;;;;;;2084849;28;20030;-83
2022/05/16 01:07:03;;;;;;;3.93;1.37;;;18.10;57.60;;;;;;2076469;28;20018;-82
2022/05/16 01:08:25;;;;;;;3.80;1.30;;;18.10;57.70;;;;;;2070485;28;20262;-93
2022/05/16 01:09:45;;;;;;;4.72;1.40;;;18.10;57.80;;;;;;2080539;28;20033;-86
2022/05/16 01:11:11;;;;;;;3.40;1.30;;;18.00;57.80;;;;;;2073590;28;20026;-93
2022/05/16 01:12:39;;;;;;;4.95;1.35;;;18.00;57.90;;;;;;2068015;28;20054;-93
2022/05/16 01:13:59;;;;;;;4.70;1.30;;;18.00;58.00;;;;;;2068950;28;20038;-92
2022/05/16 01:15:53;;;;;;;3.15;1.17;;;18.00;58.00;;;;;;2079601;28;20037;-93
2022/05/16 01:17:13;;;;;;;4.75;1.50;;;18.00;58.10;;;;;;2084283;28;20006;-79
2022/05/16 01:18:32;;;;;;;3.97;1.38;;;17.90;58.10;;;;;;2084828;28;20049;-89
2022/05/16 01:19:52;;;;;;;4.68;1.70;;;17.90;58.20;;;;;;2079462;28;20038;-93
2022/05/16 01:21:19;;;;;;;5.15;1.75;;;17.90;58.20;;;;;;2066418;28;20049;-94
2022/05/16 01:22:45;;;;;;;5.82;1.42;;;17.90;58.30;;;;;;2077505;28;20046;-94
2022/05/16 01:24:13;;;;;;;3.53;1.48;;;17.90;58.30;;;;;;2083413;28;20066;-94
2022/05/16 01:25:32;;;;;;;6.40;1.48;;;17.90;58.40;;;;;;2079767;28;20026;-86
2022/05/16 01:26:52;;;;;;;4.03;1.48;;;17.80;58.40;;;;;;2072830;28;20038;-96
2022/05/16 01:28:18;;;;;;;5.45;1.58;;;17.80;58.40;;;;;;2073379;28;20065;-93
2022/05/16 01:29:37;;;;;;;3.30;1.27;;;17.90;58.50;;;;;;2077000;28;20030;-94
2022/05/16 01:30:57;;;;;;;3.92;1.48;;;17.80;58.40;;;;;;2075841;28;20034;-94
2022/05/16 01:32:18;;;;;;;3.28;1.25;;;17.80;58.50;;;;;;2065162;28;20046;-94
2022/05/16 01:33:38;;;;;;;6.18;1.40;;;17.90;58.60;;;;;;2074062;28;20117;-94
2022/05/16 01:34:58;;;;;;;3.78;1.30;;;17.80;58.50;;;;;;2075629;28;20034;-94
2022/05/16 01:36:18;;;;;;;4.97;1.47;;;17.80;58.60;;;;;;2067918;28;20038;-93
2022/05/16 01:39:16;;;;;;;3.20;1.30;;;17.80;58.70;;;;;;2067965;28;20050;-95
2022/05/16 01:40:36;;;;;;;3.88;1.25;;;17.80;58.70;;;;;;2068103;28;20039;-94
2022/05/16 01:41:56;;;;;;;;;;;17.80;58.70;;;;;;2071183;28;20509;-93
2022/05/16 01:43:16;;;;;;;4.93;1.48;;;17.80;58.90;;;;;;2068945;28;19921;-93
2022/05/16 01:44:35;;;;;;;2.88;1.13;;;17.80;58.80;;;;;;2075508;28;20424;-93
2022/05/16 01:45:55;;;;;;;5.65;1.70;;;17.80;58.80;;;;;;2065013;28;20039;-93
2022/05/16 01:47:15;;;;;;;3.70;1.27;;;17.70;58.80;;;;;;2064552;28;20027;-93
2022/05/16 01:48:35;;;;;;;4.80;1.33;;;17.70;58.90;;;;;;2064641;28;20125;-94
2022/05/16 01:49:54;;;;;;;3.92;1.40;;;17.70;59.00;;;;;;2065015;28;20030;-93
2022/05/16 01:51:13;;;;;;;3.90;1.50;;;17.70;59.00;;;;;;2071496;28;20030;-94
2022/05/16 01:52:32;;;;;;;3.63;1.30;;;17.70;59.10;;;;;;2059017;28;20062;-93
2022/05/16 01:53:53;;;;;;;3.33;1.20;;;17.70;59.10;;;;;;2069621;28;20089;-93
2022/05/16 01:55:13;;;;;;;;;;;17.70;59.20;;;;;;2057015;28;20074;-92
2022/05/16 01:56:33;;;;;;;5.40;1.60;;;17.70;59.20;;;;;;2056343;28;19914;-93
2022/05/16 01:57:53;;;;;;;;;;;17.70;59.20;;;;;;2065682;28;20050;-93
2022/05/16 01:59:12;;;;;;;3.33;1.13;;;17.70;59.20;;;;;;2059626;28;19910;-94
2022/05/16 02:00:32;;;;;;;2.92;1.15;;;17.60;59.10;;;;;;2059478;28;20073;-94
2022/05/16 02:01:51;;;;;;;3.08;1.30;;;17.60;59.20;;;;;;2055398;28;20027;-94
2022/05/16 02:03:11;;;;;;;4.22;1.50;;;17.60;59.20;;;;;;2046438;28;20134;-93
2022/05/16 02:04:31;;;;;;;5.10;1.55;;;17.60;59.40;;;;;;2064521;28;20034;-93
2022/05/16 02:05:50;;;;;;;5.47;1.60;;;17.60;59.40;;;;;;2075802;28;20120;-94
2022/05/16 02:07:09;;;;;;;4.55;1.60;;;17.60;59.50;;;;;;2059169;28;20035;-92
2022/05/16 02:08:28;;;;;;;3.70;1.45;;;17.60;59.70;;;;;;2069194;28;20512;-94
2022/05/16 02:09:48;;;;;;;5.70;1.70;;;17.60;59.70;;;;;;2073503;28;20541;-93
2022/05/16 02:11:07;;;;;;;4.10;1.50;;;17.50;59.80;;;;;;2066773;28;20042;-93
2022/05/16 02:12:26;;;;;;;6.60;1.83;;;17.50;60.00;;;;;;2070775;28;20046;-92
2022/05/16 02:13:46;;;;;;;4.35;1.50;;;17.50;60.00;;;;;;2058950;28;20043;-92
2022/05/16 02:15:08;;;;;;;5.07;1.60;;;17.50;60.20;;;;;;2068155;28;20042;-93
2022/05/16 02:16:28;;;;;;;5.15;1.60;;;17.50;60.20;;;;;;2069574;28;20110;-92
2022/05/16 02:17:47;;;;;;;3.40;1.40;;;17.50;60.20;;;;;;2068417;28;20038;-92
2022/05/16 02:19:06;;;;;;;5.00;1.55;;;17.50;60.20;;;;;;2067979;28;20097;-93
2022/05/16 02:20:27;;;;;;;4.03;1.58;;;17.50;60.30;;;;;;2067558;28;20038;-92
2022/05/16 02:25:03;;;;;;;4.18;1.75;;;17.40;60.30;;;;;;2074267;28;20045;-93
2022/05/16 02:26:22;;;;;;;3.95;1.42;;;17.40;60.30;;;;;;2058933;28;20043;-94
2022/05/16 02:27:43;;;;;;;4.40;1.40;;;17.40;60.50;;;;;;2056295;28;20125;-94
2022/05/16 02:29:03;;;;;;;4.80;1.70;;;17.40;60.50;;;;;;2056218;28;20027;-94
2022/05/16 02:30:22;;;;;;;5.35;1.83;;;17.40;60.60;;;;;;2060162;28;20542;-92
2022/05/16 02:31:42;;;;;;;5.50;1.75;;;17.40;60.70;;;;;;2064566;28;20030;-92
2022/05/16 02:33:02;;;;;;;4.18;1.60;;;17.40;60.70;;;;;;2068985;28;20080;-93
2022/05/16 02:34:22;;;;;;;;;;;17.40;60.80;;;;;;2060098;28;20042;-94
2022/05/16 02:35:42;;;;;;;3.72;1.23;;;17.40;60.80;;;;;;2062348;28;19918;-93
2022/05/16 02:37:01;;;;;;;5.15;1.52;;;17.30;60.60;;;;;;2063839;28;20046;-93
2022/05/16 02:38:21;;;;;;;4.63;1.60;;;17.40;60.70;;;;;;2059736;28;20047;-93
2022/05/16 02:39:44;;;;;;;4.88;1.55;;;17.30;60.80;;;;;;2064741;28;20034;-95
2022/05/16 02:41:05;;;;;;;4.93;1.65;;;17.30;60.80;;;;;;2060623;28;20039;-92
2022/05/16 02:42:24;;;;;;;3.83;1.38;;;17.30;60.90;;;;;;2069950;28;20035;-90
2022/05/16 02:43:43;;;;;;;4.57;1.60;;;17.30;60.90;;;;;;2070063;28;20514;-84
2022/05/16 02:45:04;;;;;;;5.13;1.80;;;17.30;61.00;;;;;;2062974;28;20046;-82
2022/05/16 02:46:24;;;;;;;4.00;1.58;;;17.30;61.00;;;;;;2076645;28;20038;-93
2022/05/16 02:47:43;;;;;;;3.92;1.50;;;17.30;61.70;;;;;;2074865;28;20023;-85
2022/05/16 02:49:03;;;;;;;3.70;1.40;;;17.30;61.00;;;;;;2072985;28;20046;-88
2022/05/16 02:50:23;;;;;;;5.40;1.67;;;17.30;61.10;;;;;;2059355;28;20038;-93
2022/05/16 02:51:43;;;;;;;3.75;1.50;;;17.30;61.20;;;;;;2066402;28;20074;-94
2022/05/16 02:53:02;;;;;;;6.32;1.80;;;17.30;61.20;;;;;;2067970;28;20038;-94
2022/05/16 02:54:21;;;;;;;6.20;1.85;;;17.30;61.30;;;;;;2070422;28;20074;-93
2022/05/16 02:55:41;;;;;;;4.65;1.73;;;17.20;61.30;;;;;;2054674;28;20115;-83
2022/05/16 02:57:00;;;;;;;4.82;1.60;;;17.20;61.40;;;;;;2066082;28;20026;-87
2022/05/16 02:58:19;;;;;;;4.30;1.70;;;17.20;61.50;;;;;;2050127;29;20043;-92
2022/05/16 02:59:39;;;;;;;4.22;1.65;;;17.20;61.60;;;;;;2060575;28;20034;-94
2022/05/16 03:00:58;;;;;;;6.28;1.80;;;17.20;61.60;;;;;;2066471;28;20043;-93
2022/05/16 03:02:17;;;;;;;4.47;1.40;;;17.20;61.70;;;;;;2063447;28;20030;-91
2022/05/16 03:03:41;;;;;;;5.03;1.65;;;17.20;61.70;;;;;;2071880;28;20019;-83
2022/05/16 03:05:00;;;;;;;3.75;1.40;;;17.20;61.80;;;;;;2075927;28;20034;-94
2022/05/16 03:06:19;;;;;;;5.40;1.60;;;17.10;61.80;;;;;;2066515;28;20034;-93
2022/05/16 03:07:39;;;;;;;6.78;1.70;;;17.10;61.90;;;;;;2067485;28;20034;-94
2022/05/16 03:08:58;;;;;;;3.92;1.60;;;17.10;62.00;;;;;;2063148;28;20035;-93
2022/05/16 03:10:18;;;;;;;4.35;1.50;;;17.10;62.00;;;;;;2056379;28;20043;-92
2022/05/16 03:11:37;;;;;;;4.85;1.52;;;17.10;62.10;;;;;;2053075;28;20043;-93
2022/05/16 03:12:56;;;;;;;5.03;1.70;;;17.10;62.10;;;;;;2057300;28;20042;-93
2022/05/16 03:14:16;;;;;;;4.93;1.50;;;17.10;62.10;;;;;;2065975;28;20047;-94
2022/05/16 03:15:35;;;;;;;7.38;1.55;;;17.10;62.20;;;;;;2054061;28;20117;-94
2022/05/16 03:16:55;;;;;;;6.63;1.35;;;17.10;62.20;;;;;;2074403;28;20045;-92
2022/05/16 03:18:14;;;;;;;4.40;1.60;;;17.10;62.20;;;;;;2070310;28;20125;-93
2022/05/16 03:19:35;;;;;;;3.78;1.40;;;17.10;62.20;;;;;;2071457;28;20416;-93
2022/05/16 03:20:55;;;;;;;5.05;1.90;;;17.00;62.20;;;;;;2079533;28;20038;-91
2022/05/16 03:22:15;;;;;;;4.80;1.55;;;17.00;62.30;;;;;;2082804;28;20034;-89
2022/05/16 03:23:34;;;;;;;5.50;1.80;;;17.10;62.40;;;;;;2081061;28;20101;-93
2022/05/16 03:24:53;;;;;;;6.15;2.05;;;17.00;62.40;;;;;;2066393;28;20039;-93
2022/05/16 03:26:13;;;;;;;4.60;1.50;;;17.00;62.40;;;;;;2076593;28;20022;-92
2022/05/16 03:27:32;;;;;;;6.38;1.75;;;17.00;62.50;;;;;;2071143;28;20046;-93
2022/05/16 03:28:52;;;;;;;4.30;1.55;;;17.00;63.20;;;;;;2066566;28;20034;-92
2022/05/16 03:30:12;;;;;;;5.72;1.90;;;17.00;62.60;;;;;;2065617;28;20070;-94
2022/05/16 03:31:31;;;;;;;2.67;1.40;;;16.90;62.60;;;;;;2072947;28;20034;-93
2022/05/16 03:32:50;;;;;;;4.38;1.90;;;16.90;62.60;;;;;;2060490;28;20062;-92
2022/05/16 03:34:11;;;;;;;3.92;1.42;;;16.90;62.70;;;;;;2057380;28;20092;-92
2022/05/16 03:35:31;;;;;;;3.95;1.55;;;16.90;62.70;;;;;;2057747;28;20043;-93
2022/05/16 03:36:50;;;;;;;4.40;1.90;;;16.90;62.70;;;;;;2055353;28;20047;-93
2022/05/16 03:40:41;;;;;;;3.95;1.40;;;16.90;62.80;;;;;;2053983;28;20117;-92
2022/05/16 03:41:28;;;;;;;2.70;1.50;;;16.90;63.00;;;;;;2071365;28;20073;-93
2022/05/16 03:42:47;;;;;;;3.75;1.75;;;16.80;62.90;;;;;;2059415;28;20051;-93
2022/05/16 03:44:06;;;;;;;3.55;1.55;;;16.90;63.00;;;;;;2064000;28;20034;-93
2022/05/16 03:45:25;;;;;;;5.47;1.77;;;16.90;63.10;;;;;;2073342;28;20034;-93
2022/05/16 03:46:44;;;;;;;4.70;1.60;;;16.80;63.10;;;;;;2074879;28;20034;-93
2022/05/16 03:48:07;;;;;;;5.30;1.50;;;16.80;63.10;;;;;;2052083;29;20481;-92
2022/05/16 03:49:27;;;;;;;4.05;1.40;;;16.80;63.20;;;;;;2066512;28;20030;-92
2022/05/16 03:50:46;;;;;;;7.72;1.80;;;16.80;63.20;;;;;;2068659;28;20054;-94
2022/05/16 03:52:06;;;;;;;6.05;1.85;;;16.80;63.30;;;;;;2076232;28;20046;-93
2022/05/16 03:53:26;;;;;;;;;;;16.80;63.30;;;;;;2068600;28;20050;-94
2022/05/16 03:54:45;;;;;;;4.45;1.40;;;16.80;63.30;;;;;;2067901;28;19913;-93
2022/05/16 03:56:04;;;;;;;3.83;1.50;;;16.80;63.20;;;;;;2059902;28;20042;-93
2022/05/16 03:57:24;;;;;;;4.18;1.60;;;16.80;63.30;;;;;;2074459;28;20034;-94
2022/05/16 03:58:43;;;;;;;3.38;1.42;;;16.70;63.30;;;;;;2076351;28;20070;-94
2022/05/16 04:00:04;;;;;;;5.93;1.80;;;16.80;63.50;;;;;;2059565;28;20489;-92
2022/05/16 04:01:24;;;;;;;6.63;1.60;;;16.80;63.50;;;;;;2067246;28;20042;-94
2022/05/16 04:02:44;;;;;;;3.72;1.27;;;16.80;63.70;;;;;;2060147;28;20047;-95
2022/05/16 04:04:03;;;;;;;5.05;1.60;;;16.70;63.60;;;;;;2057366;28;20042;-93
2022/05/16 04:05:24;;;;;;;3.88;1.70;;;16.70;63.70;;;;;;2061903;28;20038;-92
2022/05/16 04:06:45;;;;;;;;;;;16.70;63.80;;;;;;2067712;28;20042;-93
2022/05/16 04:08:05;;;;;;;3.80;1.50;;;16.70;63.80;;;;;;2067369;28;19945;-94
2022/05/16 04:09:24;;;;;;;4.30;1.50;;;16.70;63.70;;;;;;2055147;28;20050;-93
2022/05/16 04:10:43;;;;;;;3.70;1.30;;;16.70;63.80;;;;;;2069654;28;20473;-92
2022/05/16 04:12:03;;;;;;;3.97;1.42;;;16.70;63.90;;;;;;2075219;28;20069;-92
2022/05/16 04:13:23;;;;;;;4.05;1.45;;;16.60;64.00;;;;;;2068731;28;20042;-93
2022/05/16 04:14:42;;;;;;;3.10;1.30;;;16.60;64.10;;;;;;2074972;28;20026;-89
2022/05/16 04:16:03;;;;;;;4.22;1.52;;;16.60;64.10;;;;;;2067477;28;20174;-93
2022/05/16 04:17:22;;;;;;;2.42;1.30;;;16.60;64.20;;;;;;2073187;28;20037;-91
2022/05/16 04:18:44;;;;;;;4.15;1.50;;;16.60;64.20;;;;;;2076441;28;20042;-93
2022/05/16 04:20:04;;;;;;;5.03;1.67;;;16.60;64.30;;;;;;2076347;28;20034;-94
2022/05/16 04:21:23;;;;;;;5.38;1.50;;;16.60;64.30;;;;;;2065377;28;20042;-93
2022/05/16 04:22:42;;;;;;;3.20;1.40;;;16.60;64.40;;;;;;2064429;28;20047;-89
2022/05/16 04:24:02;;;;;;;3.33;1.60;;;16.60;64.40;;;;;;2065597;28;20050;-82
2022/05/16 04:25:21;;;;;;;4.60;1.50;;;16.60;64.40;;;;;;2071102;28;20481;-91
2022/05/16 04:26:42;;;;;;;3.83;1.48;;;16.60;64.50;;;;;;2069781;28;20043;-87
2022/05/16 04:28:01;;;;;;;4.10;1.40;;;16.60;64.50;;;;;;2081970;28;20033;-84
2022/05/16 04:29:20;;;;;;;5.75;1.73;;;16.60;64.50;;;;;;2077260;28;20416;-90
2022/05/16 04:30:40;;;;;;;4.95;1.70;;;16.60;65.20;;;;;;2075154;28;20042;-92
2022/05/16 04:31:59;;;;;;;3.88;1.48;;;16.60;64.60;;;;;;2074820;28;20069;-91
2022/05/16 04:33:19;;;;;;;4.38;1.83;;;16.60;64.60;;;;;;2067992;28;20046;-91
2022/05/16 04:34:39;;;;;;;;;;;16.60;64.70;;;;;;2074143;28;20030;-90
2022/05/16 04:35:58;;;;;;;3.95;1.40;;;16.60;64.70;;;;;;2076328;28;19901;-88
2022/05/16 04:37:18;;;;;;;3.95;1.70;;;16.60;64.60;;;;;;2074251;28;20405;-90
2022/05/16 04:38:37;;;;;;;4.60;1.48;;;16.60;64.60;;;;;;2065368;28;20042;-91
2022/05/16 04:39:56;;;;;;;3.63;1.67;;;16.60;64.80;;;;;;2053603;28;20047;-88
2022/05/16 04:43:01;;;;;;;4.10;1.45;;;16.60;64.90;;;;;;2067224;28;20034;-89
2022/05/16 04:44:20;;;;;;;4.70;1.65;;;16.60;64.90;;;;;;2076214;28;20034;-90
2022/05/16 04:45:40;;;;;;;4.07;1.58;;;16.60;64.90;;;;;;2069734;28;20038;-92
2022/05/16 04:46:59;;;;;;;4.95;1.80;;;16.60;64.90;;;;;;2067965;28;20050;-93
2022/05/16 04:48:19;;;;;;;4.50;1.60;;;16.60;64.90;;;;;;2074700;28;20094;-92
2022/05/16 04:49:38;;;;;;;3.97;1.45;;;16.60;65.00;;;;;;2074356;28;20038;-90
2022/05/16 04:50:58;;;;;;;5.53;1.58;;;16.60;65.00;;;;;;2072830;28;20049;-87
2022/05/16 04:52:17;;;;;;;4.03;1.95;;;16.60;65.60;;;;;;2075244;28;20046;-87
2022/05/16 04:53:36;;;;;;;3.97;1.70;;;16.60;65.10;;;;;;2058305;28;20042;-91
2022/05/16 04:54:55;;;;;;;4.22;1.40;;;16.70;65.10;;;;;;2068513;28;20070;-91
2022/05/16 04:56:14;;;;;;;4.00;1.58;;;16.70;65.20;;;;;;2075151;28;20480;-91
2022/05/16 04:57:33;;;;;;;4.68;1.80;;;16.70;65.10;;;;;;2075505;28;20041;-91
2022/05/16 04:58:53;;;;;;;5.40;1.70;;;16.70;65.10;;;;;;2066724;28;20050;-91
2022/05/16 05:00:13;;;;;;;3.90;1.80;;;16.70;65.10;;;;;;2070774;28;20053;-92
2022/05/16 05:01:32;;;;;;;;;;;16.70;65.10;;;;;;2073970;28;20038;-91
2022/05/16 05:02:52;;;;;;;5.15;1.75;;;16.80;65.10;;;;;;2066296;28;19913;-92
2022/05/16 05:04:11;;;;;;;4.55;1.80;;;16.70;65.60;;;;;;2071104;28;20128;-92
2022/05/16 05:05:30;;;;;;;4.93;1.60;;;16.80;65.00;;;;;;2058371;28;20039;-92
2022/05/16 05:06:50;;;;;;;5.03;1.90;;;16.80;65.30;;;;;;2071412;28;20054;-91
2022/05/16 05:08:10;;;;;;;4.50;1.73;;;16.90;65.00;;;;;;2069945;28;20034;-92
2022/05/16 05:09:29;;;;;;;3.92;1.95;;;17.00;64.90;;;;;;2068725;28;20074;-92
2022/05/16 05:15:46;;;;;;;4.22;1.70;;;17.30;64.50;;;;;;2066278;28;20046;-92
2022/05/16 05:17:08;;;;;;;4.35;1.70;;;17.40;64.30;;;;;;2074075;28;20493;-93
2022/05/16 05:18:27;;;;;;;4.63;1.50;;;17.50;64.30;;;;;;2075115;28;20113;-94
2022/05/16 05:19:47;;;;;;;4.20;1.70;;;17.60;64.10;;;;;;2058619;28;20039;-93
2022/05/16 05:21:06;;;;;;;3.42;1.58;;;17.70;63.90;;;;;;2065872;28;21855;-91
2022/05/16 05:22:25;;;;;;;5.10;1.90;;;17.70;63.70;;;;;;2072484;28;20046;-94
2022/05/16 05:23:45;;;;;;;3.22;1.50;;;17.80;63.60;;;;;;2066671;28;20121;-94
2022/05/16 05:25:05;;;;;;;4.97;2.10;;;17.90;63.60;;;;;;2055447;28;20494;-95
2022/05/16 05:26:24;;;;;;;4.63;1.73;;;18.00;63.40;;;;;;2071639;28;20050;-95
2022/05/16 05:27:48;;;;;;;3.25;1.50;;;18.10;63.40;;;;;;2065081;28;20121;-94
2022/05/16 05:29:08;;;;;;;4.20;1.67;;;18.20;63.20;;;;;;2070220;28;20042;-95
2022/05/16 05:30:30;;;;;;;4.67;1.77;;;18.30;63.10;;;;;;2060378;28;20133;-92
2022/05/16 05:31:49;;;;;;;4.38;1.70;;;18.30;62.90;;;;;;2065772;28;20301;-96
2022/05/16 05:33:09;;;;;;;4.00;1.70;;;18.40;62.90;;;;;;2072658;28;20026;-93
2022/05/16 05:34:28;;;;;;;3.63;1.67;;;18.50;62.80;;;;;;2075387;28;20042;-93
2022/05/16 05:35:48;;;;;;;5.45;1.88;;;18.50;62.70;;;;;;2080723;28;20022;-94
2022/05/16 05:37:07;;;;;;;5.32;1.88;;;18.50;62.60;;;;;;2075573;28;20033;-94
2022/05/16 05:38:26;;;;;;;4.85;1.70;;;18.60;62.60;;;;;;2074582;28;20046;-93
2022/05/16 05:39:46;;;;;;;5.50;1.80;;;18.60;62.60;;;;;;2069580;28;20038;-92
2022/05/16 05:41:07;;;;;;;4.60;1.60;;;18.60;62.50;;;;;;2069120;28;20124;-94
2022/05/16 05:42:27;;;;;;;4.43;1.85;;;18.70;62.50;;;;;;2075598;28;20037;-94
2022/05/16 05:43:47;;;;;;;3.75;1.73;;;18.80;62.40;;;;;;2061633;28;20129;-94
2022/05/16 05:45:08;;;;;;;4.78;1.50;;;18.90;62.30;;;;;;2057274;28;20026;-94
2022/05/16 05:46:27;;;;;;;;;;;18.90;62.10;;;;;;2065372;28;20042;-94
2022/05/16 05:47:46;;;;;;;4.32;1.80;;;19.00;62.00;;;;;;2059165;28;19914;-94
2022/05/16 05:49:06;;;;;;;3.70;1.60;;;19.00;61.80;;;;;;2065248;28;20050;-94
2022/05/16 05:50:25;;;;;;;4.20;1.50;;;19.10;61.70;;;;;;2066805;28;20039;-94
2022/05/16 05:51:44;;;;;;;4.65;1.73;;;19.10;61.70;;;;;;2058760;28;20046;-94
2022/05/16 05:53:03;;;;;;;5.70;1.90;;;19.10;61.70;;;;;;2060410;28;20066;-93
2022/05/16 05:54:23;;;;;;;5.40;1.70;;;19.10;61.90;;;;;;2071611;28;20034;-94
2022/05/16 05:55:42;;;;;;;5.00;1.60;;;19.00;61.80;;;;;;2074919;28;20037;-95
2022/05/16 05:57:02;;;;;;;3.72;1.65;;;19.00;62.00;;;;;;2065968;28;20054;-92
2022/05/16 05:58:21;;;;;;;5.15;1.85;;;18.90;62.00;;;;;;2059399;28;20038;-94
2022/05/16 05:59:41;;;;;;;4.43;2.03;;;18.90;62.10;;;;;;2069221;28;20046;-94
2022/05/16 06:01:01;;;;;;;4.85;1.80;;;18.80;62.20;;;;;;2078757;28;20069;-94
2022/05/16 06:02:21;;;;;;;7.22;1.83;;;18.80;62.30;;;;;;2067946;28;20038;-92
2022/05/16 06:03:40;;;;;;;6.28;1.83;;;18.70;62.50;;;;;;2071204;28;20026;-84
2022/05/16 06:04:59;;;;;;;5.20;1.90;;;18.70;62.60;;;;;;2081447;28;20026;-85
2022/05/16 06:06:18;;;;;;;4.10;1.80;;;18.60;62.70;;;;;;2084536;28;20026;-91
2022/05/16 06:07:38;;;;;;;6.18;1.90;;;18.60;63.10;;;;;;2084513;28;20030;-84
2022/05/16 06:08:57;;;;;;;4.93;1.88;;;18.60;62.90;;;;;;2082712;28;20038;-95
2022/05/16 06:10:17;;;;;;;7.07;1.85;;;18.50;62.90;;;;;;2079572;28;20030;-94
2022/05/16 06:11:36;;;;;;;5.93;2.03;;;18.50;63.00;;;;;;2062278;28;20035;-95
2022/05/16 06:12:55;;;;;;;4.57;1.90;;;18.50;63.00;;;;;;2075049;28;20089;-94
2022/05/16 06:14:16;;;;;;;4.50;2.03;;;18.60;63.00;;;;;;2081387;28;20045;-93
2022/05/16 06:15:35;;;;;;;4.78;1.92;;;18.60;63.00;;;;;;2076075;28;20046;-86
2022/05/16 06:16:55;;;;;;;5.07;2.30;;;18.60;63.50;;;;;;2069928;28;20046;-92
2022/05/16 06:18:14;;;;;;;5.72;2.10;;;18.60;62.90;;;;;;2077360;28;20049;-95
2022/05/16 06:19:36;;;;;;;6.50;2.03;;;18.60;62.80;;;;;;2068146;28;20026;-95
2022/05/16 06:20:55;;;;;;;3.78;1.65;;;18.60;62.90;;;;;;2078710;28;20094;-95
2022/05/16 06:22:15;;;;;;;3.50;1.70;;;18.60;62.90;;;;;;2083013;28;20017;-95
2022/05/16 06:23:35;;;;;;;3.53;1.63;;;18.60;62.90;;;;;;2076334;28;20068;-84
2022/05/16 06:26:32;;;;;;;4.00;1.48;;;18.60;63.10;;;;;;2065413;28;20497;-96
2022/05/16 06:27:51;;;;;;;6.40;2.03;;;18.60;63.10;;;;;;2076007;28;20045;-94
2022/05/16 06:29:10;;;;;;;6.53;2.13;;;18.60;63.20;;;;;;2060821;28;20038;-95
2022/05/16 06:30:31;;;;;;;4.40;1.80;;;18.60;63.30;;;;;;2072161;28;20022;-95
2022/05/16 06:31:51;;;;;;;6.13;1.80;;;18.60;63.40;;;;;;2074848;28;20046;-95
2022/05/16 06:33:10;;;;;;;5.22;2.10;;;18.50;63.50;;;;;;2077075;28;20125;-90
2022/05/16 06:34:30;;;;;;;5.40;2.00;;;18.50;63.60;;;;;;2072466;28;20034;-92
2022/05/16 06:35:49;;;;;;;4.38;1.90;;;18.50;63.70;;;;;;2073919;28;20022;-93
2022/05/16 06:37:09;;;;;;;5.45;1.85;;;18.50;63.70;;;;;;2064885;28;20038;-92
2022/05/16 06:38:31;;;;;;;4.72;1.90;;;18.50;63.70;;;;;;2070618;28;20042;-94
2022/05/16 06:39:50;;;;;;;5.53;1.98;;;18.50;63.80;;;;;;2064708;28;20038;-93
2022/05/16 06:41:10;;;;;;;5.05;1.88;;;18.50;63.80;;;;;;2062610;28;20043;-92
2022/05/16 06:42:31;;;;;;;4.55;1.65;;;18.50;63.80;;;;;;2060554;28;20077;-93
2022/05/16 06:43:50;;;;;;;4.18;1.63;;;18.60;63.80;;;;;;2056741;28;20075;-91
2022/05/16 06:45:10;;;;;;;4.05;1.73;;;18.70;63.80;;;;;;2072660;28;20045;-93
2022/05/16 06:46:29;;;;;;;3.95;1.83;;;18.80;63.60;;;;;;2073089;28;20480;-94
2022/05/16 06:47:48;;;;;;;6.78;1.90;;;18.80;63.50;;;;;;2074192;28;20049;-93
2022/05/16 06:49:07;;;;;;;4.70;1.90;;;18.90;63.30;;;;;;2073959;28;20072;-94
2022/05/16 06:50:27;;;;;;;4.25;1.70;;;19.00;63.20;;;;;;2064916;28;20054;-94
2022/05/16 06:51:46;;;;;;;5.13;1.73;;;19.10;63.20;;;;;;2069069;28;20384;-93
2022/05/16 06:53:08;;;;;;;5.00;1.65;;;19.20;63.10;;;;;;2067533;28;20050;-93
2022/05/16 06:54:27;;;;;;;5.25;1.70;;;19.30;63.00;;;;;;2068530;28;20030;-93
2022/05/16 06:55:46;;;;;;;4.30;1.58;;;19.50;62.70;;;;;;2074353;28;20408;-93
2022/05/16 06:57:05;;;;;;;4.45;1.70;;;19.60;62.50;;;;;;2073898;28;20469;-92
2022/05/16 06:58:26;;;;;;;4.32;1.85;;;19.70;62.30;;;;;;2057809;28;20030;-92
2022/05/16 06:59:45;;;;;;;4.78;1.92;;;19.80;62.10;;;;;;2062636;28;20038;-93
2022/05/16 07:01:05;;;;;;;4.45;1.88;;;19.90;62.00;;;;;;2051331;28;20039;-93
2022/05/16 07:02:24;;;;;;;4.13;1.70;;;19.90;61.90;;;;;;2064547;28;20042;-92
2022/05/16 07:03:43;;;;;;;4.75;1.70;;;19.90;61.90;;;;;;2070442;28;20042;-92
2022/05/16 07:05:03;;;;;;;5.00;1.88;;;19.90;62.10;;;;;;2051893;28;20432;-93
2022/05/16 07:06:22;;;;;;;4.90;1.67;;;19.80;62.10;;;;;;2063699;28;20065;-92
2022/05/16 07:07:42;;;;;;;5.68;1.75;;;19.80;62.30;;;;;;2072730;28;20038;-93
2022/05/16 07:09:01;;;;;;;4.38;1.80;;;19.80;62.40;;;;;;2072318;28;20112;-93
2022/05/16 07:10:21;;;;;;;3.45;1.60;;;19.70;62.50;;;;;;2073429;28;20314;-94
2022/05/16 07:11:40;;;;;;;5.85;1.70;;;19.70;62.70;;;;;;2057742;28;20118;-92
2022/05/16 07:13:00;;;;;;;3.75;1.70;;;19.80;62.80;;;;;;2061965;28;20505;-93
2022/05/16 07:14:19;;;;;;;4.78;1.70;;;19.80;62.80;;;;;;2062410;28;20050;-92
2022/05/16 07:15:38;;;;;;;6.13;1.70;;;19.90;62.80;;;;;;2065937;28;20039;-92
2022/05/16 07:16:57;;;;;;;3.40;1.83;;;19.90;62.60;;;;;;2066180;28;20486;-92